Simon Bolivar, Colombia

7:16 PM COT en Septiembre 22, 2014 (GMT -0500)
Simon Bolivar | Change Station
CLOSE
Current Station
Aeropuerto
Location: Santa Marta,
Altura: 13 ft
Estaciones meteorológicas cercanas

Alt 13 ft 11.12 °N, 74.23 °W | Updated 16 minutes ago

Light Drizzle
Llovizna débil
75 ° F
Sensación térmica 75 ° F
N
5
Viento Variable Viento desde NE

Hoy
Alta -- | Baja -- ° F
--% Posibilidad de precipitaciones
Ayer
Alta -- | Baja -- ° F
Precip. -- pul
5:46 AM 5:52 PM
Creciente menguante, 1% visible
Presión 29.83 pul
Visibilidad 6.2 Millas
Nubes Baja 2000 ft
Nublado 10000 ft
Punto de rocío 73 ° F
Humedad 94%
Precipitaciones 0.00 pul
Espesor de la nieve No disponible.
UV 0 de una escala de 12
Polen No disponible.
Calidad del aire No disponible.
Flu Activity No disponible.
METAR SKSM 230000Z 04004KT 9999 -DZ FEW020CB OVC100 24/23 A2983 RMK CB/NE

More Conditions Fewer Conditions

Presión 29.83 pul
Visibilidad 6.2 Millas
Nubes Baja 2000 ft
Nublado 10000 ft
Punto de rocío 73 ° F
Humedad 94%
Precipitaciones 0.00 pul
Espesor de la nieve No disponible.
UV 0 de una escala de 12
Polen No disponible.
Calidad del aire No disponible.
Flu Activity No disponible.
METAR SKSM 230000Z 04004KT 9999 -DZ FEW020CB OVC100 24/23 A2983 RMK CB/NE

More Conditions Fewer Conditions

10-Day Weather Forecast

Almanac

Astronomía

Sep. 22, 2014 Salida Puesta
Hora real 5:46 AM COT 5:52 PM COT
Crepúsculo civil 5:25 AM COT 6:14 PM COT
Crepúsculo náutico 5:00 AM COT 6:38 PM COT
Crepúsculo astronómico 4:36 AM COT 7:02 PM COT
Luna 4:24 AM COT (9/22) 4:52 PM COT (9/22)
Horas de luz 12h 48m
Horas de luz
12h 06m
Tomorrow will be 0m 36s shorter.
Creciente menguante, 1% of the Moon is Illuminated
Hoy
Creciente menguante
Sep 24
Nueva
Oct 1
Cuarto creciente
Oct 8
Luna llena
Oct 15
Cuarto menguante

Extremos de hoy

Máximos del país Bajas del país

Community

WunderPhotos

Upload Photos

1,755,562 ¡fotos cargadas!

Nearby

Calidad del aire

Not available.

Grosos de nieve

Not available.

Actividad de terremotos

Ciudad Distance Mag. Tiempo y dato
No hay informes recientes de la actividad sísmica.
Magnitud mínima muestra es 2,5.

Temperaturas de aguas costeras

Lugar Temperatura
Sin partes meteorológicos de las estaciones

Estaciones meteorológicas cercanas